Time;durP1;ratioP1;P1;durP2;ratioP2;P2;SDS_P1;SDS_P2;PMS_P1;PMS_P2;Temp;Humidity;BMP_temperature;BMP_pressure;BME280_temperature;BME280_humidity;BME280_pressure;Samples;Min_cycle;Max_cycle;Signal;HPM_P1;HPM_P2
2021/11/03 00:00:00;;;;;;;13.88;10.77;;;8.60;85.70;;;;;;5071279;28;20031;-71
2021/11/03 00:02:26;;;;;;;12.95;10.10;;;8.60;85.80;;;;;;5066290;28;20040;-71
2021/11/03 00:04:52;;;;;;;16.10;11.98;;;8.70;85.80;;;;;;5072149;28;20020;-71
2021/11/03 00:07:18;;;;;;;15.25;12.18;;;8.80;85.80;;;;;;5082953;28;20028;-71
2021/11/03 00:09:44;;;;;;;17.63;13.05;;;8.80;85.80;;;;;;5076549;28;20099;-71
2021/11/03 00:12:15;;;;;;;14.10;11.10;;;8.80;85.90;;;;;;5079004;28;20043;-71
2021/11/03 00:14:40;;;;;;;15.75;11.45;;;8.80;86.00;;;;;;5074319;28;20379;-71
2021/11/03 00:17:07;;;;;;;18.08;12.88;;;8.80;86.00;;;;;;5072808;28;20033;-71
2021/11/03 00:19:33;;;;;;;16.02;11.07;;;8.70;86.00;;;;;;5079273;28;20028;-71
2021/11/03 00:21:58;;;;;;;16.08;12.18;;;8.70;86.10;;;;;;5071202;28;20020;-72
2021/11/03 00:24:24;;;;;;;13.70;9.88;;;8.70;86.10;;;;;;5077953;28;20060;-72
2021/11/03 00:26:49;;;;;;;12.23;9.02;;;8.70;86.20;;;;;;5071399;28;20017;-71
2021/11/03 00:29:15;;;;;;;14.95;10.55;;;8.80;86.20;;;;;;5073918;28;20116;-71
2021/11/03 00:31:41;;;;;;;15.18;11.40;;;8.80;86.10;;;;;;5073928;28;20032;-71
2021/11/03 00:34:06;;;;;;;13.25;10.00;;;8.80;86.20;;;;;;5072342;28;20024;-71
2021/11/03 00:36:32;;;;;;;15.75;12.23;;;8.80;86.20;;;;;;5071254;28;20025;-71
2021/11/03 00:38:58;;;;;;;18.10;13.82;;;8.70;86.10;;;;;;5071025;28;20032;-71
2021/11/03 00:41:23;;;;;;;19.45;14.75;;;8.70;86.20;;;;;;5071415;28;20085;-71
2021/11/03 00:43:50;;;;;;;14.98;11.68;;;8.70;86.20;;;;;;5072074;28;20023;-71
2021/11/03 00:46:16;;;;;;;15.00;10.85;;;8.60;86.30;;;;;;5071532;28;20028;-71
2021/11/03 00:48:42;;;;;;;14.75;11.38;;;8.70;86.50;;;;;;5070995;28;20024;-71
2021/11/03 00:51:08;;;;;;;13.13;9.77;;;8.70;86.50;;;;;;5068522;28;20028;-71
2021/11/03 00:53:33;;;;;;;16.98;12.32;;;8.70;86.40;;;;;;5071802;28;20048;-71
2021/11/03 00:55:59;;;;;;;14.18;10.13;;;8.70;86.30;;;;;;5071498;28;20073;-71
2021/11/03 00:58:24;;;;;;;12.50;9.48;;;8.60;86.40;;;;;;5071115;28;20040;-71
2021/11/03 01:00:50;;;;;;;17.88;12.35;;;8.60;86.40;;;;;;5071059;28;20510;-71
2021/11/03 01:03:16;;;;;;;12.85;9.38;;;8.60;86.30;;;;;;5068164;28;20087;-71
2021/11/03 01:05:41;;;;;;;13.82;10.00;;;8.60;86.30;;;;;;5050073;28;20028;-71
2021/11/03 01:08:09;;;;;;;14.63;11.10;;;8.60;86.30;;;;;;5070789;28;20039;-70
2021/11/03 01:10:38;;;;;;;16.33;11.95;;;8.60;86.30;;;;;;5071322;28;20021;-70
2021/11/03 01:13:03;;;;;;;18.00;12.40;;;8.50;86.30;;;;;;5071090;28;20047;-71
2021/11/03 01:15:29;;;;;;;13.60;10.15;;;8.40;86.40;;;;;;5069654;28;20728;-71
2021/11/03 01:17:56;;;;;;;33.40;11.27;;;8.40;86.60;;;;;;5071350;28;20127;-71
2021/11/03 01:20:23;;;;;;;14.43;8.88;;;8.40;86.50;;;;;;5066024;28;20032;-71
2021/11/03 01:22:49;;;;;;;14.25;9.38;;;8.40;86.60;;;;;;5061633;28;20032;-71
2021/11/03 01:25:15;;;;;;;11.38;8.68;;;8.30;86.60;;;;;;5060270;28;20466;-71
2021/11/03 01:27:41;;;;;;;13.68;8.70;;;8.40;86.60;;;;;;5068131;28;20020;-71
2021/11/03 01:30:10;;;;;;;10.40;8.02;;;8.40;86.60;;;;;;5070778;28;20039;-71
2021/11/03 01:32:35;;;;;;;10.20;8.10;;;8.40;86.60;;;;;;5070695;28;20446;-71
2021/11/03 01:35:01;;;;;;;17.10;8.95;;;8.40;86.60;;;;;;5071425;28;20021;-71
2021/11/03 01:37:27;;;;;;;20.63;8.52;;;8.40;86.50;;;;;;5070068;28;20049;-71
2021/11/03 01:39:52;;;;;;;12.23;7.95;;;8.40;86.50;;;;;;5071065;28;20021;-71
2021/11/03 01:42:18;;;;;;;12.90;8.13;;;8.40;86.50;;;;;;5070342;28;20459;-71
2021/11/03 01:44:43;;;;;;;9.73;7.32;;;8.40;86.50;;;;;;5070787;28;20048;-71
2021/11/03 01:47:43;;;;;;;10.93;7.38;;;8.40;86.40;;;;;;5069963;28;20398;-71
2021/11/03 01:50:23;;;;;;;9.23;6.93;;;8.40;86.50;;;;;;5063419;28;20063;-71
2021/11/03 01:52:55;;;;;;;9.80;7.13;;;8.40;86.50;;;;;;5069624;28;20070;-71
2021/11/03 01:55:21;;;;;;;8.68;6.95;;;8.40;86.40;;;;;;5067704;28;20024;-71
2021/11/03 01:57:53;;;;;;;11.48;7.20;;;8.40;86.30;;;;;;5069384;28;20146;-71
2021/11/03 02:00:23;;;;;;;10.30;7.63;;;8.40;86.30;;;;;;5061895;28;20027;-71
2021/11/03 02:02:51;;;;;;;8.73;6.95;;;8.30;86.30;;;;;;5069311;28;20042;-71
2021/11/03 02:05:18;;;;;;;14.18;7.38;;;8.30;86.30;;;;;;5066115;28;20057;-71
2021/11/03 02:07:45;;;;;;;10.70;7.55;;;8.30;86.40;;;;;;5069625;28;20028;-70
2021/11/03 02:10:12;;;;;;;9.15;7.05;;;8.20;86.40;;;;;;5069026;28;20079;-71
2021/11/03 02:12:38;;;;;;;9.40;7.25;;;8.20;86.60;;;;;;5069668;28;20553;-71
2021/11/03 02:15:07;;;;;;;9.90;7.40;;;8.20;86.40;;;;;;5070483;28;20056;-71
2021/11/03 02:17:33;;;;;;;8.73;6.85;;;8.20;86.30;;;;;;5065772;28;20032;-71
2021/11/03 02:20:03;;;;;;;8.00;6.72;;;8.30;86.20;;;;;;5070268;28;20108;-71
2021/11/03 02:22:58;;;;;;;9.07;6.80;;;8.20;86.00;;;;;;5070030;28;20095;-71
2021/11/03 02:25:28;;;;;;;8.23;6.15;;;8.20;85.90;;;;;;5071273;28;20360;-71
2021/11/03 02:27:56;;;;;;;9.15;6.95;;;8.20;85.90;;;;;;5071572;28;20036;-71
2021/11/03 02:30:26;;;;;;;9.25;7.15;;;8.10;86.50;;;;;;5074347;28;20111;-70
2021/11/03 02:32:57;;;;;;;10.52;7.00;;;8.10;85.70;;;;;;5069019;28;20111;-71
2021/11/03 02:35:23;;;;;;;8.67;6.47;;;8.10;85.60;;;;;;5071094;28;20039;-71
2021/11/03 02:37:52;;;;;;;9.55;7.18;;;8.10;85.60;;;;;;5068369;28;20387;-71
2021/11/03 02:40:46;;;;;;;11.95;6.80;;;8.00;85.50;;;;;;5071178;28;20024;-72
2021/11/03 02:43:32;;;;;;;9.20;6.13;;;7.90;85.50;;;;;;5077410;28;20027;-71
2021/11/03 02:46:01;;;;;;;10.90;6.78;;;7.90;85.50;;;;;;5074175;28;20028;-71
2021/11/03 02:48:29;;;;;;;8.40;5.72;;;7.90;85.60;;;;;;5071829;28;20466;-71
2021/11/03 02:50:56;;;;;;;14.73;6.32;;;7.90;85.70;;;;;;5074055;28;20024;-72
2021/11/03 02:53:22;;;;;;;19.30;6.38;;;7.90;85.70;;;;;;5073539;28;20028;-73
2021/11/03 02:55:47;;;;;;;13.63;5.53;;;7.90;85.50;;;;;;5073608;28;20122;-73
2021/11/03 02:58:13;;;;;;;12.80;5.40;;;7.90;85.50;;;;;;5073125;28;20043;-72
2021/11/03 03:00:39;;;;;;;9.18;5.53;;;7.80;85.50;;;;;;5073899;28;20025;-72
2021/11/03 03:03:04;;;;;;;14.00;5.50;;;7.80;85.70;;;;;;5073842;28;20067;-73
2021/11/03 03:05:30;;;;;;;8.95;5.85;;;7.70;85.70;;;;;;5073954;28;20021;-73
2021/11/03 03:07:55;;;;;;;6.55;5.50;;;7.70;85.80;;;;;;5072814;28;20352;-72
2021/11/03 03:10:21;;;;;;;9.15;5.68;;;7.80;85.90;;;;;;5073895;28;20371;-72
2021/11/03 03:12:47;;;;;;;8.23;5.32;;;7.80;85.70;;;;;;5072581;28;20561;-72
2021/11/03 03:15:13;;;;;;;6.47;5.65;;;7.80;85.60;;;;;;5074031;28;20043;-72
2021/11/03 03:17:38;;;;;;;7.53;5.40;;;7.80;85.50;;;;;;5071105;28;20047;-72
2021/11/03 03:20:06;;;;;;;7.97;3.80;;;7.70;85.40;;;;;;5077507;28;20128;-72
2021/11/03 03:22:31;;;;;;;11.27;5.20;;;7.70;85.30;;;;;;5074380;28;20256;-72
2021/11/03 03:24:57;;;;;;;7.57;5.30;;;7.60;85.30;;;;;;5073387;28;20024;-72
2021/11/03 03:27:22;;;;;;;15.90;6.05;;;7.60;85.30;;;;;;5072846;28;20134;-72
2021/11/03 03:29:48;;;;;;;13.10;4.78;;;7.50;85.40;;;;;;5062407;28;20501;-73
2021/11/03 03:32:13;;;;;;;9.32;5.10;;;7.40;85.60;;;;;;5067434;28;20029;-72
2021/11/03 03:34:40;;;;;;;12.88;5.68;;;7.30;85.70;;;;;;5071517;28;20029;-72
2021/11/03 03:37:07;;;;;;;11.35;5.80;;;7.30;86.00;;;;;;5071870;28;20053;-72
2021/11/03 03:39:33;;;;;;;16.02;6.00;;;7.30;86.20;;;;;;5071658;28;20020;-72
2021/11/03 03:42:14;;;;;;;7.90;3.67;;;7.30;86.20;;;;;;5072262;28;20086;-72
2021/11/03 03:44:41;;;;;;;11.07;5.32;;;7.30;86.20;;;;;;5070976;28;20070;-71
2021/11/03 03:47:07;;;;;;;4.88;4.13;;;7.40;86.10;;;;;;5070870;28;20114;-73
2021/11/03 03:49:33;;;;;;;17.58;8.00;;;7.30;86.10;;;;;;5066675;28;20051;-72
2021/11/03 03:51:59;;;;;;;11.80;6.78;;;7.30;86.20;;;;;;5069874;28;20016;-72
2021/11/03 03:54:26;;;;;;;15.43;6.22;;;7.30;86.30;;;;;;5069585;28;20032;-71
2021/11/03 03:56:51;;;;;;;12.50;6.95;;;7.30;86.30;;;;;;5063960;28;20048;-72
2021/11/03 03:59:17;;;;;;;9.57;6.47;;;7.30;86.30;;;;;;5070115;28;20024;-72
2021/11/03 04:01:43;;;;;;;22.73;6.88;;;7.30;86.30;;;;;;5071199;28;20479;-72
2021/11/03 04:04:09;;;;;;;16.00;5.88;;;7.30;86.20;;;;;;5071377;28;20029;-72
2021/11/03 04:06:35;;;;;;;12.88;6.05;;;7.30;86.20;;;;;;5070609;28;20028;-72
2021/11/03 04:09:02;;;;;;;26.52;8.20;;;7.30;86.10;;;;;;5070792;28;20421;-72
2021/11/03 04:11:27;;;;;;;31.40;8.32;;;7.30;86.00;;;;;;5068729;28;20055;-72
2021/11/03 04:13:53;;;;;;;56.75;9.25;;;7.20;86.00;;;;;;5070033;28;20056;-71
2021/11/03 04:16:18;;;;;;;24.63;7.05;;;7.20;86.10;;;;;;5071522;28;20032;-71
2021/11/03 04:18:44;;;;;;;12.50;5.32;;;7.20;86.80;;;;;;5069272;28;20486;-71
2021/11/03 04:21:10;;;;;;;13.48;5.57;;;7.20;86.20;;;;;;5071522;28;20028;-72
2021/11/03 04:23:36;;;;;;;9.68;5.05;;;7.20;86.20;;;;;;5071502;28;20048;-72
2021/11/03 04:26:02;;;;;;;16.38;5.90;;;7.30;86.20;;;;;;5068209;28;20102;-72
2021/11/03 04:28:27;;;;;;;12.77;5.40;;;7.30;86.10;;;;;;5070788;28;20021;-71
2021/11/03 04:30:53;;;;;;;7.45;5.10;;;7.30;86.00;;;;;;5070868;28;20029;-72
2021/11/03 04:33:20;;;;;;;12.85;5.22;;;7.30;86.00;;;;;;5071661;28;20021;-72
2021/11/03 04:35:47;;;;;;;16.40;5.78;;;7.40;86.00;;;;;;5071062;28;20385;-71
2021/11/03 04:38:12;;;;;;;15.70;5.40;;;7.30;86.10;;;;;;5070332;28;20040;-71
2021/11/03 04:40:38;;;;;;;10.13;5.10;;;7.30;86.10;;;;;;5070957;28;20120;-71
2021/11/03 04:43:04;;;;;;;12.88;5.60;;;7.30;86.30;;;;;;5071293;28;20036;-71
2021/11/03 04:45:29;;;;;;;7.50;5.47;;;7.30;86.30;;;;;;5069228;28;20066;-71
2021/11/03 04:47:55;;;;;;;10.75;5.57;;;7.40;86.20;;;;;;5069781;28;20028;-72
2021/11/03 04:50:28;;;;;;;9.90;5.25;;;7.40;86.10;;;;;;5068944;28;20024;-72
2021/11/03 04:52:54;;;;;;;10.45;5.15;;;7.40;86.00;;;;;;5071294;28;20040;-72
2021/11/03 04:55:21;;;;;;;26.45;5.65;;;7.40;85.80;;;;;;5067759;28;20055;-72
2021/11/03 04:57:47;;;;;;;6.85;4.60;;;7.50;85.70;;;;;;5068902;28;20044;-72
2021/11/03 05:00:24;;;;;;;19.20;5.10;;;7.40;85.50;;;;;;5069015;28;20027;-71
2021/11/03 05:02:50;;;;;;;11.32;4.78;;;7.40;85.70;;;;;;5069397;28;20028;-72
2021/11/03 05:05:15;;;;;;;9.00;5.07;;;7.40;85.60;;;;;;5068864;28;20522;-72
2021/11/03 05:07:41;;;;;;;12.50;4.20;;;7.40;85.50;;;;;;5068877;28;20035;-72
2021/11/03 05:10:07;;;;;;;8.93;4.90;;;7.30;86.10;;;;;;5060283;28;20025;-71
2021/11/03 05:12:33;;;;;;;10.95;5.22;;;7.30;85.70;;;;;;5065400;28;20032;-71
2021/11/03 05:14:59;;;;;;;14.48;5.32;;;7.20;85.80;;;;;;5069170;28;20077;-71
2021/11/03 05:17:24;;;;;;;6.97;4.60;;;7.20;86.10;;;;;;5061916;28;20597;-71
2021/11/03 05:19:50;;;;;;;8.38;4.78;;;7.20;86.20;;;;;;5069801;28;20036;-71
2021/11/03 05:22:17;;;;;;;24.45;6.13;;;7.20;86.10;;;;;;5070411;28;20558;-71
2021/11/03 05:24:43;;;;;;;14.25;4.15;;;7.20;85.90;;;;;;5069564;28;20024;-71
2021/11/03 05:27:12;;;;;;;19.25;5.30;;;7.10;85.80;;;;;;5068079;28;20032;-72
2021/11/03 05:29:37;;;;;;;18.17;4.78;;;7.10;85.90;;;;;;5071124;28;20162;-72
2021/11/03 05:32:03;;;;;;;11.43;6.20;;;7.00;86.00;;;;;;5071031;28;20116;-72
2021/11/03 05:34:29;;;;;;;9.73;5.30;;;7.00;86.10;;;;;;5070555;28;20189;-69
2021/11/03 05:36:54;;;;;;;9.30;4.00;;;6.90;86.10;;;;;;5068808;28;20025;-71
2021/11/03 05:39:20;;;;;;;17.98;5.18;;;6.90;86.30;;;;;;5071047;28;20390;-71
2021/11/03 05:41:45;;;;;;;30.05;5.85;;;6.90;86.50;;;;;;5070531;28;20071;-71
2021/11/03 05:44:17;;;;;;;12.25;5.72;;;6.90;86.60;;;;;;5071496;28;20475;-70
2021/11/03 05:46:49;;;;;;;13.97;4.73;;;6.90;86.60;;;;;;5069916;28;20158;-70
2021/11/03 05:49:16;;;;;;;31.55;4.88;;;6.90;86.50;;;;;;5064830;28;20278;-71
2021/11/03 05:51:45;;;;;;;11.68;4.70;;;6.90;86.30;;;;;;5069204;28;20028;-71
2021/11/03 05:54:11;;;;;;;11.90;4.90;;;6.90;86.20;;;;;;5066598;28;20110;-71
2021/11/03 05:56:37;;;;;;;13.48;4.97;;;6.90;86.20;;;;;;5069829;28;20040;-71
2021/11/03 05:59:04;;;;;;;10.82;4.75;;;7.00;86.00;;;;;;5068816;28;20029;-71
2021/11/03 06:01:30;;;;;;;6.53;4.25;;;7.00;85.90;;;;;;5068813;28;20107;-71
2021/11/03 06:03:56;;;;;;;11.88;4.55;;;7.00;86.00;;;;;;5069253;28;20475;-70
2021/11/03 06:06:22;;;;;;;15.35;4.57;;;7.00;86.00;;;;;;5070698;28;20117;-70
2021/11/03 06:08:52;;;;;;;9.07;4.03;;;7.00;86.10;;;;;;5069638;28;20032;-71
2021/11/03 06:11:20;;;;;;;9.27;4.32;;;7.00;86.20;;;;;;5069027;28;20472;-71
2021/11/03 06:13:47;;;;;;;4.70;3.92;;;7.00;86.20;;;;;;5057696;28;20032;-71
2021/11/03 06:16:13;;;;;;;8.60;5.50;;;7.00;86.20;;;;;;5069287;28;20075;-71
2021/11/03 06:18:39;;;;;;;9.65;5.55;;;6.80;86.00;;;;;;5062665;28;20543;-70
2021/11/03 06:21:05;;;;;;;9.05;5.45;;;6.80;86.10;;;;;;5073588;28;20475;-70
2021/11/03 06:23:31;;;;;;;6.28;5.18;;;6.60;86.20;;;;;;5069924;28;20050;-69
2021/11/03 06:25:57;;;;;;;8.60;6.82;;;6.50;86.50;;;;;;5065189;28;20526;-70
2021/11/03 06:28:23;;;;;;;10.02;5.60;;;6.40;86.60;;;;;;5067855;28;20029;-70
2021/11/03 06:30:49;;;;;;;9.18;6.50;;;6.40;86.90;;;;;;5068846;28;20048;-71
2021/11/03 06:33:15;;;;;;;9.68;6.40;;;6.40;87.00;;;;;;5066326;28;20075;-69
2021/11/03 06:35:41;;;;;;;13.43;6.60;;;6.30;87.10;;;;;;5066279;28;20497;-73
2021/11/03 06:38:09;;;;;;;8.93;5.25;;;6.30;87.30;;;;;;5061052;28;20115;-71
2021/11/03 06:40:36;;;;;;;7.78;5.43;;;6.30;87.40;;;;;;5068080;28;20021;-71
2021/11/03 06:43:03;;;;;;;15.20;6.45;;;6.20;87.40;;;;;;5068962;28;20332;-71
2021/11/03 06:45:29;;;;;;;10.82;6.05;;;6.20;87.50;;;;;;5063066;28;20021;-72
2021/11/03 06:47:55;;;;;;;11.43;5.85;;;6.20;87.60;;;;;;5071630;28;20455;-71
2021/11/03 06:50:25;;;;;;;9.23;6.28;;;6.20;87.70;;;;;;5070121;28;20033;-71
2021/11/03 06:52:51;;;;;;;7.28;6.03;;;6.20;87.80;;;;;;5063603;28;20544;-71
2021/11/03 06:55:17;;;;;;;8.45;4.75;;;6.20;87.70;;;;;;5066473;28;20028;-71
2021/11/03 06:57:43;;;;;;;10.70;5.80;;;6.20;87.90;;;;;;5069400;28;20037;-71
2021/11/03 07:00:13;;;;;;;11.18;6.07;;;6.20;87.80;;;;;;5065158;28;20419;-71
2021/11/03 07:02:38;;;;;;;8.18;6.00;;;6.30;87.80;;;;;;5065963;28;20129;-71
2021/11/03 07:05:04;;;;;;;9.18;6.38;;;6.20;87.70;;;;;;5065988;28;20467;-72
2021/11/03 07:07:30;;;;;;;6.93;5.07;;;6.20;87.70;;;;;;5059418;28;20108;-72
2021/11/03 07:09:55;;;;;;;10.65;6.13;;;6.30;87.80;;;;;;5060984;28;20115;-73
2021/11/03 07:12:21;;;;;;;11.15;7.00;;;6.30;87.70;;;;;;5063565;28;20047;-73
2021/11/03 07:14:46;;;;;;;9.63;7.47;;;6.30;87.70;;;;;;5069397;28;20114;-73
2021/11/03 07:17:12;;;;;;;10.95;7.50;;;6.30;87.60;;;;;;5070183;28;20492;-74
2021/11/03 07:19:42;;;;;;;10.32;6.05;;;6.30;87.70;;;;;;5071472;28;20074;-74
2021/11/03 07:22:08;;;;;;;10.93;6.75;;;6.20;87.70;;;;;;5063799;28;20024;-73
2021/11/03 07:24:35;;;;;;;11.15;7.03;;;6.30;87.90;;;;;;5066510;28;20081;-74
2021/11/03 07:27:01;;;;;;;13.85;7.55;;;6.20;87.90;;;;;;5069852;28;20035;-74
2021/11/03 07:29:28;;;;;;;6.57;4.78;;;6.30;87.90;;;;;;5067572;28;20524;-73
2021/11/03 07:31:53;;;;;;;8.65;5.95;;;6.40;87.80;;;;;;5072860;28;20078;-73
2021/11/03 07:34:19;;;;;;;6.40;4.50;;;6.30;87.70;;;;;;5072647;28;20029;-73
2021/11/03 07:36:44;;;;;;;8.95;6.53;;;6.40;87.80;;;;;;5067063;28;20017;-73
2021/11/03 07:39:10;;;;;;;8.52;6.50;;;6.40;87.80;;;;;;5068607;28;20043;-73
2021/11/03 07:41:36;;;;;;;9.10;6.97;;;6.40;87.80;;;;;;5068844;28;20017;-73
2021/11/03 07:44:05;;;;;;;9.13;7.00;;;6.30;87.80;;;;;;5060931;28;20050;-75
2021/11/03 07:46:32;;;;;;;7.30;5.70;;;6.30;88.00;;;;;;5070880;28;20261;-74
2021/11/03 07:48:58;;;;;;;8.93;5.93;;;6.40;88.10;;;;;;5072461;28;20024;-74
2021/11/03 07:51:23;;;;;;;7.97;5.47;;;6.50;88.00;;;;;;5070104;28;20051;-74
2021/11/03 07:53:51;;;;;;;9.13;6.22;;;6.50;87.90;;;;;;5072708;28;20469;-73
2021/11/03 07:56:21;;;;;;;9.43;7.35;;;6.50;87.80;;;;;;5071932;28;20653;-73
2021/11/03 07:58:48;;;;;;;7.72;6.20;;;6.60;87.80;;;;;;5071809;28;20036;-73
2021/11/03 08:17:58;;;;;;;7.28;5.28;;;6.20;84.80;;;;;;5067814;27;20975;-71
2021/11/03 08:42:29;;;;;;;7.65;5.15;;;6.20;84.40;;;;;;5086146;28;20409;-71
2021/11/03 10:11:21;;;;;;;10.45;3.80;;;6.10;86.70;;;;;;5064822;27;20912;-70
2021/11/03 10:13:49;;;;;;;6.95;4.93;;;6.20;87.20;;;;;;5048575;28;20092;-71
2021/11/03 10:16:14;;;;;;;7.47;5.00;;;6.30;88.60;;;;;;5042236;28;20052;-71
2021/11/03 10:18:52;;;;;;;8.88;5.90;;;6.60;89.90;;;;;;5057053;28;20059;-71
2021/11/03 10:21:24;;;;;;;9.50;6.38;;;6.80;90.20;;;;;;5065203;28;20689;-71
2021/11/03 10:23:50;;;;;;;8.95;6.45;;;7.00;90.30;;;;;;5043498;28;20547;-71
2021/11/03 10:26:15;;;;;;;9.10;6.88;;;7.20;90.30;;;;;;5047958;28;20113;-71
2021/11/03 10:28:48;;;;;;;9.32;7.00;;;7.40;90.30;;;;;;5046945;28;20021;-71
2021/11/03 10:31:39;;;;;;;12.50;6.75;;;7.60;90.30;;;;;;5043818;28;20027;-71
2021/11/03 10:34:19;;;;;;;14.73;7.72;;;7.80;90.20;;;;;;5037680;28;20029;-71
2021/11/03 10:36:47;;;;;;;11.30;7.55;;;8.00;90.20;;;;;;5058722;28;20021;-72
2021/11/03 10:39:21;;;;;;;10.73;7.60;;;8.10;90.10;;;;;;5043068;28;20048;-72
2021/11/03 10:41:57;;;;;;;12.90;9.85;;;8.30;90.00;;;;;;5046038;28;20052;-72
2021/11/03 10:44:27;;;;;;;12.80;8.30;;;8.40;89.90;;;;;;5040204;28;20116;-72
2021/11/03 10:47:15;;;;;;;11.25;8.57;;;8.50;89.90;;;;;;5040679;28;20620;-72
2021/11/03 10:49:50;;;;;;;12.02;7.88;;;8.60;89.80;;;;;;5048021;28;20042;-72
2021/11/03 10:52:24;;;;;;;11.07;7.97;;;8.70;89.70;;;;;;5046338;28;20474;-72
2021/11/03 10:54:56;;;;;;;12.68;7.82;;;8.80;89.50;;;;;;5043740;28;20021;-75
2021/11/03 10:58:05;;;;;;;10.60;7.57;;;8.90;89.30;;;;;;5040669;28;20028;-81
2021/11/03 11:00:34;;;;;;;11.90;7.70;;;9.10;89.20;;;;;;5037334;28;20033;-72
2021/11/03 11:03:19;;;;;;;11.68;7.90;;;9.10;88.90;;;;;;5045136;28;20017;-72
2021/11/03 11:05:49;;;;;;;11.98;7.97;;;9.30;88.90;;;;;;5040427;28;20029;-71
2021/11/03 11:08:23;;;;;;;12.27;8.07;;;9.30;88.70;;;;;;5070368;28;20017;-72
2021/11/03 11:11:26;;;;;;;13.05;8.82;;;9.50;88.70;;;;;;5050703;28;20041;-71
2021/11/03 11:14:04;;;;;;;14.88;8.30;;;9.50;88.40;;;;;;4994982;28;20461;-72
2021/11/03 11:16:38;;;;;;;12.60;9.10;;;9.60;88.90;;;;;;5039359;28;20464;-72
2021/11/03 11:19:23;;;;;;;13.00;8.77;;;9.70;88.20;;;;;;5042990;28;20117;-72
2021/11/03 11:22:03;;;;;;;11.27;8.07;;;9.80;88.70;;;;;;5040012;28;20076;-72
2021/11/03 11:24:41;;;;;;;13.23;10.13;;;9.80;88.00;;;;;;5030660;28;20108;-72
2021/11/03 11:27:26;;;;;;;12.00;9.10;;;9.90;87.80;;;;;;5028162;28;20038;-72
2021/11/03 11:30:20;;;;;;;12.85;9.25;;;9.90;87.80;;;;;;5027805;28;20041;-73
2021/11/03 11:32:51;;;;;;;12.18;8.88;;;10.00;87.70;;;;;;5027011;28;20500;-73
2021/11/03 11:35:54;;;;;;;13.18;8.88;;;10.00;87.70;;;;;;5031351;28;20377;-72
2021/11/03 11:38:52;;;;;;;11.07;8.07;;;10.10;87.70;;;;;;5059618;28;20037;-72
2021/11/03 11:41:33;;;;;;;11.85;7.97;;;10.20;87.60;;;;;;5023149;28;20049;-72
2021/11/03 11:44:20;;;;;;;11.57;8.05;;;10.30;87.40;;;;;;5029668;28;20045;-72
2021/11/03 11:46:47;;;;;;;12.73;9.52;;;10.30;87.20;;;;;;5028167;28;20496;-72
2021/11/03 11:49:35;;;;;;;11.48;8.77;;;10.40;87.10;;;;;;5029200;28;20041;-72
2021/11/03 11:52:09;;;;;;;10.80;8.35;;;10.40;87.10;;;;;;5026450;28;20032;-72
2021/11/03 11:54:38;;;;;;;10.27;8.07;;;10.50;87.10;;;;;;5027538;28;20025;-72
2021/11/03 11:57:13;;;;;;;11.38;8.45;;;10.50;86.90;;;;;;5029864;28;20133;-73
2021/11/03 12:00:03;;;;;;;12.07;8.43;;;10.60;86.70;;;;;;5028572;28;20034;-72
2021/11/03 12:03:00;;;;;;;13.45;7.50;;;10.60;86.60;;;;;;5027532;28;20095;-73
2021/11/03 12:05:52;;;;;;;13.18;8.38;;;10.70;86.60;;;;;;5024227;28;20049;-72
2021/11/03 12:08:44;;;;;;;16.13;8.30;;;10.70;86.60;;;;;;5007437;28;20045;-72
2021/11/03 12:11:20;;;;;;;12.77;8.23;;;10.70;86.70;;;;;;5028673;28;20087;-72
2021/11/03 12:13:46;;;;;;;13.75;8.10;;;10.70;86.60;;;;;;5030365;28;20276;-72
2021/11/03 12:16:31;;;;;;;11.57;8.45;;;10.80;86.70;;;;;;5030582;28;20611;-72
2021/11/03 12:18:59;;;;;;;12.93;8.35;;;10.80;86.70;;;;;;5030764;28;20045;-73
2021/11/03 12:21:25;;;;;;;15.77;9.43;;;10.80;86.50;;;;;;5026919;28;20103;-73
2021/11/03 12:24:13;;;;;;;14.07;8.88;;;10.80;86.50;;;;;;5025884;28;20018;-73
2021/11/03 12:26:47;;;;;;;15.32;9.25;;;10.80;86.40;;;;;;5028167;28;20037;-73
2021/11/03 12:29:16;;;;;;;16.48;9.35;;;10.90;86.50;;;;;;5027979;28;20571;-72
2021/11/03 12:31:44;;;;;;;19.05;9.55;;;10.90;86.50;;;;;;5026088;28;20037;-73
2021/11/03 12:34:10;;;;;;;10.98;7.30;;;10.90;86.50;;;;;;5055947;28;20112;-73
2021/11/03 12:36:59;;;;;;;13.75;9.35;;;10.90;86.50;;;;;;5025116;28;20453;-73
2021/11/03 12:39:30;;;;;;;13.30;9.43;;;10.90;86.30;;;;;;5023896;28;20021;-72
2021/11/03 12:42:03;;;;;;;13.00;8.45;;;10.90;86.30;;;;;;5025994;28;20041;-73
2021/11/03 12:44:42;;;;;;;18.23;9.05;;;10.90;86.30;;;;;;5030815;28;20547;-73
2021/11/03 12:47:20;;;;;;;12.20;7.93;;;10.90;86.60;;;;;;5026917;28;20522;-72
2021/11/03 12:50:21;;;;;;;13.35;8.23;;;10.90;86.30;;;;;;5026531;28;20095;-73
2021/11/03 12:52:49;;;;;;;15.18;9.38;;;10.90;86.20;;;;;;5032316;28;20048;-72
2021/11/03 12:55:30;;;;;;;16.05;8.80;;;10.90;86.10;;;;;;5026842;28;20022;-72
2021/11/03 12:57:57;;;;;;;14.50;8.48;;;11.00;86.20;;;;;;5028574;28;20029;-73
2021/11/03 13:00:35;;;;;;;12.95;8.43;;;11.00;86.20;;;;;;5028429;28;20024;-73
2021/11/03 13:03:06;;;;;;;22.40;9.38;;;11.00;86.10;;;;;;5027414;28;20036;-74
2021/11/03 13:05:36;;;;;;;14.68;8.38;;;11.10;86.10;;;;;;5028548;28;20017;-73
2021/11/03 13:08:03;;;;;;;13.38;8.48;;;11.00;86.10;;;;;;5030830;28;20133;-73
2021/11/03 13:10:38;;;;;;;16.33;8.45;;;11.10;86.10;;;;;;5025869;28;20041;-74
2021/11/03 13:13:21;;;;;;;15.45;8.13;;;11.10;86.00;;;;;;5029307;28;20032;-74
2021/11/03 13:15:52;;;;;;;12.27;8.75;;;11.10;86.00;;;;;;5027032;28;20033;-74
2021/11/03 13:18:21;;;;;;;14.20;8.40;;;11.10;86.00;;;;;;5027134;28;20041;-74
2021/11/03 13:21:05;;;;;;;13.88;8.52;;;11.10;85.90;;;;;;5025923;28;20042;-74
2021/11/03 13:23:31;;;;;;;12.75;7.65;;;11.20;86.00;;;;;;5021375;28;20025;-73
2021/11/03 13:26:01;;;;;;;14.15;9.18;;;11.10;85.80;;;;;;5026589;28;20537;-73
2021/11/03 13:28:32;;;;;;;14.00;8.93;;;11.10;85.70;;;;;;5029786;28;20032;-73
2021/11/03 13:31:18;;;;;;;11.70;8.35;;;11.10;85.80;;;;;;5027579;28;20040;-73
2021/11/03 13:34:19;;;;;;;12.60;8.48;;;11.10;85.80;;;;;;5030092;28;20029;-74
2021/11/03 13:37:28;;;;;;;10.35;6.90;;;11.10;85.90;;;;;;5023012;28;20136;-74
2021/11/03 13:40:02;;;;;;;11.23;7.68;;;11.10;85.80;;;;;;5028049;28;20044;-74
2021/11/03 13:42:33;;;;;;;9.10;6.65;;;11.10;85.80;;;;;;5025216;28;20026;-73
2021/11/03 13:45:04;;;;;;;10.45;7.38;;;11.10;85.70;;;;;;5026383;28;20082;-74
2021/11/03 13:47:32;;;;;;;10.15;7.22;;;11.20;85.70;;;;;;5026824;28;20112;-74
2021/11/03 13:50:21;;;;;;;11.23;7.03;;;11.20;85.80;;;;;;5027851;28;20147;-73
2021/11/03 13:52:59;;;;;;;10.57;6.65;;;11.20;85.60;;;;;;5030560;28;20029;-73
2021/11/03 13:55:31;;;;;;;8.75;5.95;;;11.20;85.50;;;;;;5026538;28;20032;-73
2021/11/03 13:57:56;;;;;;;15.70;11.15;;;11.20;85.40;;;;;;5031397;28;20032;-74
2021/11/03 14:00:29;;;;;;;13.95;11.20;;;11.10;85.20;;;;;;5025579;28;20025;-73
2021/11/03 14:02:55;;;;;;;8.68;6.60;;;11.10;85.50;;;;;;5027571;28;20492;-73
2021/11/03 14:05:31;;;;;;;10.18;6.90;;;11.00;85.50;;;;;;5025731;28;20025;-73
2021/11/03 14:07:59;;;;;;;13.05;9.50;;;11.00;85.60;;;;;;5028154;28;20026;-72
2021/11/03 14:10:25;;;;;;;8.60;6.40;;;10.90;85.60;;;;;;5024269;28;20036;-72
2021/11/03 14:12:51;;;;;;;13.18;10.25;;;10.90;85.70;;;;;;5024768;28;20022;-73
2021/11/03 14:15:18;;;;;;;14.82;10.35;;;10.80;85.70;;;;;;5025720;28;20037;-72
2021/11/03 14:17:47;;;;;;;17.17;11.70;;;10.70;85.80;;;;;;5021183;28;20025;-73
2021/11/03 14:20:38;;;;;;;13.90;9.73;;;10.70;86.00;;;;;;5020931;28;20075;-72
2021/11/03 14:23:07;;;;;;;10.60;8.38;;;10.60;86.20;;;;;;5027554;28;20038;-74
2021/11/03 14:25:35;;;;;;;12.13;9.18;;;10.60;86.30;;;;;;5057167;28;20073;-73
2021/11/03 14:28:04;;;;;;;10.07;7.13;;;10.60;86.30;;;;;;5029687;28;20654;-73
2021/11/03 14:30:37;;;;;;;14.52;10.77;;;10.60;86.40;;;;;;5030470;28;20033;-73
2021/11/03 14:33:03;;;;;;;;;;;10.50;86.40;;;;;;5029864;28;20025;-74
2021/11/03 14:35:31;;;;;;;16.40;11.82;;;10.50;86.40;;;;;;5029727;28;19909;-72
2021/11/03 14:37:59;;;;;;;13.25;10.25;;;10.40;86.60;;;;;;5025350;28;20029;-73
2021/11/03 14:40:29;;;;;;;16.10;11.52;;;10.40;86.70;;;;;;5019218;28;20025;-71
2021/11/03 14:42:56;;;;;;;11.60;8.82;;;10.40;86.90;;;;;;5032509;28;20080;-72
2021/11/03 14:45:21;;;;;;;9.52;7.07;;;10.40;87.00;;;;;;5028898;28;20530;-71
2021/11/03 14:47:47;;;;;;;12.88;8.70;;;10.40;87.00;;;;;;5026926;28;20029;-72
2021/11/03 14:50:29;;;;;;;14.02;10.45;;;10.40;87.00;;;;;;5028943;28;20511;-72
2021/11/03 14:53:01;;;;;;;12.90;9.38;;;10.40;87.00;;;;;;5026739;28;20155;-72
2021/11/03 14:55:36;;;;;;;10.65;7.47;;;10.30;87.00;;;;;;5026651;28;20033;-72
2021/11/03 14:58:04;;;;;;;12.90;9.52;;;10.40;87.00;;;;;;5026527;28;20126;-73
2021/11/03 15:00:35;;;;;;;16.00;10.20;;;10.40;87.10;;;;;;5018481;28;20018;-75
2021/11/03 15:03:14;;;;;;;12.93;8.98;;;10.30;87.00;;;;;;5024104;28;20476;-70
2021/11/03 15:05:40;;;;;;;13.13;9.45;;;10.30;87.10;;;;;;5028995;28;20415;-71